Time;durP1;ratioP1;P1;durP2;ratioP2;P2;SDS_P1;SDS_P2;PMS_P1;PMS_P2;Temp;Humidity;BMP_temperature;BMP_pressure;BME280_temperature;BME280_humidity;BME280_pressure;Samples;Min_cycle;Max_cycle;Signal;HPM_P1;HPM_P2
2023/01/28 00:01:18;;;;;;;29.38;16.98;;;-1.20;99.90;;;;;;4978518;28;20106;-89
2023/01/28 00:04:06;;;;;;;30.85;16.75;;;-1.20;99.90;;;;;;4974929;28;20087;-89
2023/01/28 00:06:55;;;;;;;25.88;14.38;;;-1.20;99.90;;;;;;4966481;28;20623;-88
2023/01/28 00:09:45;;;;;;;35.13;16.40;;;-1.20;61.30;;;;;;4968713;28;20162;-90
2023/01/28 00:12:32;;;;;;;31.48;16.48;;;-1.20;1.00;;;;;;4956860;28;20117;-89
2023/01/28 00:15:19;;;;;;;28.70;16.45;;;-1.20;99.90;;;;;;4961399;28;20373;-89
2023/01/28 00:18:07;;;;;;;26.10;14.02;;;-1.20;99.90;;;;;;4981676;28;20162;-88
2023/01/28 00:21:00;;;;;;;26.95;15.95;;;-1.20;1.00;;;;;;4972413;28;20042;-89
2023/01/28 00:23:53;;;;;;;25.35;15.45;;;-1.20;1.00;;;;;;4988189;28;20594;-90
2023/01/28 00:26:41;;;;;;;28.85;15.65;;;-1.20;99.90;;;;;;4959546;28;20050;-89
2023/01/28 00:29:28;;;;;;;31.50;14.57;;;-1.20;99.90;;;;;;4959504;28;20141;-91
2023/01/28 00:32:17;;;;;;;29.58;16.90;;;-1.20;99.90;;;;;;4971269;28;20098;-88
2023/01/28 00:35:05;;;;;;;29.80;15.40;;;-1.20;1.00;;;;;;4986274;28;20465;-89
2023/01/28 00:37:53;;;;;;;28.90;15.40;;;-1.20;1.00;;;;;;4983594;28;20539;-90
2023/01/28 00:40:40;;;;;;;24.98;14.98;;;-1.20;99.90;;;;;;4987524;28;20058;-89
2023/01/28 00:43:27;;;;;;;29.65;16.50;;;-1.10;99.90;;;;;;4984676;28;20057;-91
2023/01/28 00:46:16;;;;;;;28.15;15.75;;;-1.20;99.90;;;;;;4978714;28;20069;-88
2023/01/28 00:49:03;;;;;;;30.05;17.00;;;-1.10;99.90;;;;;;4974401;28;20062;-90
2023/01/28 00:51:50;;;;;;;26.23;15.07;;;-1.20;1.00;;;;;;4977279;28;20050;-90
2023/01/28 00:54:38;;;;;;;26.13;14.45;;;-1.10;1.00;;;;;;4967441;28;20058;-90
2023/01/28 00:57:39;;;;;;;23.23;13.80;;;-1.20;1.00;;;;;;4975034;28;20034;-92
2023/01/28 01:00:52;;;;;;;26.08;15.13;;;-1.10;1.00;;;;;;4974893;28;20098;-87
2023/01/28 01:03:39;;;;;;;26.25;14.70;;;-1.10;1.00;;;;;;4971552;28;20042;-88
2023/01/28 01:06:34;;;;;;;24.77;14.25;;;-1.10;99.90;;;;;;4983069;28;20373;-88
2023/01/28 01:09:21;;;;;;;27.40;15.25;;;-1.10;99.90;;;;;;4971386;28;20050;-88
2023/01/28 01:12:08;;;;;;;25.80;14.18;;;-1.10;99.90;;;;;;4964109;28;20202;-89
2023/01/28 01:14:56;;;;;;;22.08;13.48;;;-1.20;99.90;;;;;;4982560;28;20074;-87
2023/01/28 01:17:46;;;;;;;24.88;12.90;;;-1.10;99.90;;;;;;4976223;28;20066;-87
2023/01/28 01:20:40;;;;;;;23.67;13.60;;;-1.10;99.90;;;;;;4986340;28;20042;-89
2023/01/28 01:23:31;;;;;;;24.88;14.18;;;-1.20;99.90;;;;;;4978760;28;20141;-88
2023/01/28 01:26:18;;;;;;;24.00;13.80;;;-1.10;99.90;;;;;;4968030;28;20054;-89
2023/01/28 01:29:08;;;;;;;24.05;12.93;;;-1.10;99.90;;;;;;4957973;28;20112;-88
2023/01/28 01:31:59;;;;;;;21.88;13.20;;;-1.10;99.90;;;;;;4985133;28;20071;-89
2023/01/28 01:34:48;;;;;;;23.17;12.98;;;-1.10;99.90;;;;;;4971206;28;20115;-86
2023/01/28 01:37:36;;;;;;;23.55;13.80;;;-1.10;99.90;;;;;;4987824;28;20105;-88
2023/01/28 01:40:23;;;;;;;23.52;13.65;;;-1.10;99.90;;;;;;4997224;28;20101;-87
2023/01/28 01:43:16;;;;;;;22.52;12.57;;;-1.10;99.90;;;;;;4988485;28;20027;-84
2023/01/28 01:46:03;;;;;;;;;;;-1.10;99.90;;;;;;4971186;28;20110;-89
2023/01/28 01:48:52;;;;;;;24.50;13.30;;;-1.10;99.90;;;;;;4976578;28;19929;-87
2023/01/28 01:51:41;;;;;;;24.48;13.35;;;-1.10;1.00;;;;;;4963506;28;20475;-88
2023/01/28 01:54:30;;;;;;;26.25;13.25;;;-1.10;1.00;;;;;;4962469;28;20039;-89
2023/01/28 01:57:23;;;;;;;22.55;13.27;;;-1.10;1.00;;;;;;4966269;28;20043;-88
2023/01/28 02:00:12;;;;;;;25.90;13.45;;;-1.10;29.80;;;;;;4958606;28;20046;-89
2023/01/28 02:03:00;;;;;;;23.50;13.63;;;-1.10;67.00;;;;;;4980239;28;20149;-89
2023/01/28 02:05:49;;;;;;;27.02;13.77;;;-1.10;64.30;;;;;;4970894;28;20074;-88
2023/01/28 02:08:36;;;;;;;23.13;13.68;;;-1.10;99.90;;;;;;4976493;28;20058;-89
2023/01/28 02:11:26;;;;;;;24.42;13.93;;;-1.10;99.90;;;;;;4973674;28;20471;-89
2023/01/28 02:14:18;;;;;;;26.23;13.60;;;-1.10;99.90;;;;;;4959926;28;20713;-88
2023/01/28 02:17:17;;;;;;;24.02;13.20;;;-1.20;99.90;;;;;;4960866;28;20414;-88
2023/01/28 02:20:09;;;;;;;25.15;13.90;;;-1.10;99.90;;;;;;4973476;28;20051;-89
2023/01/28 02:23:17;;;;;;;20.90;13.30;;;-1.10;99.90;;;;;;4957197;28;20054;-86
2023/01/28 02:26:08;;;;;;;22.95;12.88;;;-1.10;99.90;;;;;;4960519;28;20058;-88
2023/01/28 02:29:18;;;;;;;24.48;13.77;;;-1.10;99.90;;;;;;4986979;28;20077;-89
2023/01/28 02:32:35;;;;;;;24.40;14.35;;;-1.10;99.90;;;;;;4973339;28;20209;-89
2023/01/28 02:35:33;;;;;;;22.73;13.57;;;-1.10;1.00;;;;;;4974536;28;20188;-87
2023/01/28 02:38:36;;;;;;;26.90;14.27;;;-1.10;1.00;;;;;;4983268;28;20563;-88
2023/01/28 02:41:34;;;;;;;26.38;13.93;;;-1.10;3.80;;;;;;4976438;28;20493;-89
2023/01/28 02:44:24;;;;;;;26.70;14.60;;;-1.10;43.70;;;;;;4970418;28;20049;-88
2023/01/28 02:50:19;;;;;;;26.95;14.38;;;-1.10;51.30;;;;;;4974316;28;20388;-88
2023/01/28 02:56:43;;;;;;;27.20;15.65;;;-1.00;1.30;;;;;;4989087;28;20038;-89
2023/01/28 02:59:48;;;;;;;25.60;13.95;;;-1.00;63.30;;;;;;4976737;28;20053;-89
2023/01/28 03:02:49;;;;;;;26.00;14.77;;;-1.10;32.30;;;;;;4965390;28;20034;-89
2023/01/28 03:06:06;;;;;;;25.88;14.23;;;-1.00;1.00;;;;;;4979018;28;20046;-89
2023/01/28 03:37:39;;;;;;;23.33;12.43;;;-1.00;99.90;;;;;;4973460;28;20572;-89
2023/01/28 03:40:27;;;;;;;24.67;13.50;;;-1.00;1.00;;;;;;4976400;28;20049;-89
2023/01/28 03:43:16;;;;;;;24.17;13.50;;;-1.00;1.00;;;;;;4964632;28;20468;-90
2023/01/28 03:46:05;;;;;;;26.13;13.15;;;-1.00;45.30;;;;;;4968898;28;20148;-89
2023/01/28 03:48:52;;;;;;;24.83;13.80;;;-1.00;99.90;;;;;;4976343;28;20104;-90
2023/01/28 03:51:39;;;;;;;25.17;13.10;;;-1.00;99.90;;;;;;4973433;28;20076;-90
2023/01/28 03:54:27;;;;;;;21.20;13.25;;;-1.00;1.00;;;;;;4971619;28;20129;-87
2023/01/28 03:57:17;;;;;;;23.88;13.80;;;-1.00;63.30;;;;;;4958689;28;20050;-90
2023/01/28 04:00:06;;;;;;;23.20;13.85;;;-1.00;99.90;;;;;;4959683;28;20510;-89
2023/01/28 04:02:53;;;;;;;27.58;14.35;;;-1.00;99.90;;;;;;4964947;28;20059;-89
2023/01/28 04:05:59;;;;;;;24.83;14.10;;;-1.00;99.90;;;;;;4960109;28;20047;-89
2023/01/28 04:08:51;;;;;;;25.52;14.73;;;-1.00;1.00;;;;;;4982148;28;20106;-90
2023/01/28 04:11:39;;;;;;;25.95;14.23;;;-1.00;1.00;;;;;;4978222;28;20050;-88
2023/01/28 04:14:26;;;;;;;21.60;14.02;;;-1.00;23.60;;;;;;4951836;28;20441;-88
2023/01/28 04:17:14;;;;;;;28.88;15.40;;;-1.00;55.70;;;;;;4973345;28;20043;-91
2023/01/28 04:20:02;;;;;;;26.30;15.13;;;-1.00;99.90;;;;;;4978339;28;20066;-90
2023/01/28 04:23:11;;;;;;;26.40;14.63;;;-1.00;99.90;;;;;;4980999;28;20046;-88
2023/01/28 04:25:58;;;;;;;30.08;15.90;;;-1.00;99.90;;;;;;4964414;28;20054;-89
2023/01/28 04:28:45;;;;;;;29.67;15.00;;;-1.00;99.90;;;;;;4973054;28;20475;-88
2023/01/28 04:31:35;;;;;;;30.48;17.40;;;-1.00;99.90;;;;;;4972595;28;20047;-90
2023/01/28 04:34:24;;;;;;;31.65;18.23;;;-1.00;99.90;;;;;;4980063;28;20053;-86
2023/01/28 04:37:12;;;;;;;31.05;18.27;;;-1.00;99.90;;;;;;4979416;28;20054;-88
2023/01/28 04:40:00;;;;;;;31.52;17.92;;;-1.00;99.90;;;;;;4965228;28;20129;-88
2023/01/28 04:42:55;;;;;;;32.45;18.90;;;-1.00;99.90;;;;;;4974255;28;20078;-88
2023/01/28 04:45:43;;;;;;;36.13;20.13;;;-1.00;99.90;;;;;;4982270;28;20050;-90
2023/01/28 04:48:30;;;;;;;34.63;19.30;;;-1.00;99.90;;;;;;4955329;28;20050;-88
2023/01/28 04:51:18;;;;;;;43.10;20.23;;;-1.00;99.90;;;;;;4978282;28;20046;-91
2023/01/28 04:54:05;;;;;;;40.25;19.75;;;-1.00;99.90;;;;;;4969972;28;20066;-88
2023/01/28 04:56:52;;;;;;;33.17;19.42;;;-1.00;99.90;;;;;;4977804;28;20054;-89
2023/01/28 04:59:39;;;;;;;39.38;20.75;;;-1.00;99.90;;;;;;4963393;28;20483;-88
2023/01/28 05:02:27;;;;;;;38.28;21.65;;;-1.00;99.90;;;;;;4963325;28;20058;-90
2023/01/28 05:05:14;;;;;;;34.08;19.60;;;-1.00;99.90;;;;;;4977670;28;20069;-90
2023/01/28 05:08:02;;;;;;;32.88;19.92;;;-0.90;99.90;;;;;;4974981;28;20394;-90
2023/01/28 05:10:49;;;;;;;32.00;19.85;;;-0.90;99.90;;;;;;4963528;28;20055;-89
2023/01/28 05:13:36;;;;;;;35.08;20.67;;;-0.90;99.90;;;;;;4978573;28;20046;-91
2023/01/28 05:16:23;;;;;;;40.55;21.67;;;-0.90;99.90;;;;;;4983510;28;20045;-89
2023/01/28 05:19:11;;;;;;;36.40;19.65;;;-0.90;99.90;;;;;;4970940;28;20039;-90
2023/01/28 05:21:58;;;;;;;34.17;19.42;;;-0.90;99.90;;;;;;4975302;28;20039;-89
2023/01/28 05:24:53;;;;;;;38.38;21.00;;;-0.90;99.90;;;;;;4975960;28;20141;-90
2023/01/28 05:27:40;;;;;;;39.15;20.15;;;-0.90;99.90;;;;;;4964191;28;20047;-90
2023/01/28 05:30:27;;;;;;;40.70;21.20;;;-0.90;99.90;;;;;;4964361;28;20046;-88
2023/01/28 05:33:15;;;;;;;35.03;19.95;;;-0.90;99.90;;;;;;4967941;28;20043;-89
2023/01/28 05:36:05;;;;;;;35.85;20.35;;;-0.90;99.90;;;;;;4980085;28;20047;-90
2023/01/28 05:38:55;;;;;;;31.92;19.27;;;-0.90;99.90;;;;;;4982103;28;20121;-88
2023/01/28 05:41:42;;;;;;;37.58;20.00;;;-0.90;99.90;;;;;;4982108;28;20182;-88
2023/01/28 05:44:32;;;;;;;37.88;20.00;;;-0.90;99.90;;;;;;4983003;28;20057;-88
2023/01/28 05:47:22;;;;;;;34.65;19.55;;;-0.90;99.90;;;;;;4975140;28;20109;-89
2023/01/28 05:50:14;;;;;;;33.42;18.45;;;-0.90;99.90;;;;;;4967908;28;20086;-90
2023/01/28 05:53:05;;;;;;;35.13;19.27;;;-0.90;99.90;;;;;;4959916;28;20055;-89
2023/01/28 05:55:52;;;;;;;37.13;19.48;;;-0.90;99.90;;;;;;4969853;28;20121;-89
2023/01/28 05:58:42;;;;;;;38.08;20.27;;;-0.90;99.90;;;;;;4975904;28;20096;-89
2023/01/28 06:01:29;;;;;;;35.58;20.33;;;-0.90;99.90;;;;;;4959439;28;20102;-89
2023/01/28 06:04:17;;;;;;;37.63;21.15;;;-0.90;99.90;;;;;;4972997;28;20061;-89
2023/01/28 06:07:06;;;;;;;34.05;19.45;;;-1.00;99.90;;;;;;4964692;28;20500;-89
2023/01/28 06:09:54;;;;;;;35.20;20.13;;;-0.90;99.90;;;;;;4969270;28;20074;-89
2023/01/28 06:12:41;;;;;;;37.13;19.40;;;-1.00;99.90;;;;;;4972318;28;20475;-89
2023/01/28 06:15:31;;;;;;;34.70;19.20;;;-0.90;99.90;;;;;;4963255;28;20126;-91
2023/01/28 06:18:18;;;;;;;31.65;18.65;;;-1.00;99.90;;;;;;4956070;28;20141;-88
2023/01/28 06:21:06;;;;;;;34.33;19.70;;;-0.90;99.90;;;;;;4983268;28;20114;-88
2023/01/28 06:23:53;;;;;;;34.13;20.00;;;-1.00;99.90;;;;;;4974803;28;20074;-88
2023/01/28 06:26:41;;;;;;;37.75;19.45;;;-0.90;99.90;;;;;;4967100;28;20368;-88
2023/01/28 06:29:28;;;;;;;35.70;19.40;;;-0.90;99.90;;;;;;4967069;28;20413;-88
2023/01/28 06:32:18;;;;;;;38.55;19.80;;;-0.90;99.90;;;;;;4973167;28;20496;-87
2023/01/28 06:35:06;;;;;;;35.55;20.33;;;-0.90;99.90;;;;;;4971045;28;20069;-87
2023/01/28 06:37:55;;;;;;;32.40;19.30;;;-0.90;99.90;;;;;;4971154;28;20114;-86
2023/01/28 06:40:42;;;;;;;38.00;21.00;;;-0.90;99.90;;;;;;4967028;28;20137;-87
2023/01/28 06:43:29;;;;;;;33.40;19.40;;;-0.90;99.90;;;;;;4962102;28;20055;-85
2023/01/28 06:46:25;;;;;;;33.92;18.38;;;-0.90;99.90;;;;;;4975358;28;20050;-90
2023/01/28 06:49:13;;;;;;;31.17;18.20;;;-0.90;99.90;;;;;;4974286;28;20047;-87
2023/01/28 06:52:00;;;;;;;30.23;17.42;;;-0.90;99.90;;;;;;4977710;28;20074;-90
2023/01/28 06:54:47;;;;;;;33.15;18.55;;;-1.00;99.90;;;;;;4977537;28;20113;-90
2023/01/28 06:57:38;;;;;;;34.63;17.92;;;-0.90;99.90;;;;;;4986292;28;20087;-91
2023/01/28 07:00:28;;;;;;;36.10;19.85;;;-0.90;99.90;;;;;;4961401;28;20109;-89
2023/01/28 07:03:19;;;;;;;36.53;19.83;;;-0.90;99.90;;;;;;4981838;28;20055;-90
2023/01/28 07:06:07;;;;;;;34.20;18.77;;;-0.90;99.90;;;;;;4970107;28;20058;-90
2023/01/28 07:08:54;;;;;;;36.97;19.20;;;-0.90;99.90;;;;;;4957474;28;20422;-90
2023/01/28 07:11:41;;;;;;;33.30;18.33;;;-0.80;99.90;;;;;;4976433;28;20071;-88
2023/01/28 07:14:28;;;;;;;31.48;17.85;;;-0.90;99.90;;;;;;4976671;28;20046;-89
2023/01/28 07:17:15;;;;;;;35.67;18.25;;;-0.90;99.90;;;;;;4987631;28;20046;-88
2023/01/28 07:20:04;;;;;;;30.75;17.90;;;-0.80;99.90;;;;;;4961881;28;20054;-87
2023/01/28 07:22:51;;;;;;;34.70;19.02;;;-0.80;99.90;;;;;;4957966;28;20475;-90
2023/01/28 07:25:39;;;;;;;34.50;18.10;;;-0.80;99.90;;;;;;4984736;28;20049;-90
2023/01/28 07:28:28;;;;;;;31.95;18.48;;;-0.80;99.90;;;;;;4978284;28;20114;-92
2023/01/28 07:31:15;;;;;;;34.83;19.00;;;-0.80;99.90;;;;;;4972004;28;20071;-88
2023/01/28 07:34:03;;;;;;;31.05;17.35;;;-0.80;99.90;;;;;;4984281;28;20058;-89
2023/01/28 07:36:51;;;;;;;30.05;17.85;;;-0.70;99.90;;;;;;4965060;28;20420;-89
2023/01/28 07:39:38;;;;;;;32.13;17.98;;;-0.70;99.90;;;;;;4968332;28;20105;-90
2023/01/28 07:42:26;;;;;;;32.95;19.02;;;-0.70;99.90;;;;;;4986379;28;20078;-87
2023/01/28 07:45:14;;;;;;;25.98;16.15;;;-0.60;99.90;;;;;;4993145;28;20071;-89
2023/01/28 07:48:04;;;;;;;30.90;17.25;;;-0.60;99.90;;;;;;4979680;28;20090;-86
2023/01/28 07:50:57;;;;;;;27.95;16.63;;;-0.60;99.90;;;;;;4985688;28;20052;-86
2023/01/28 07:53:44;;;;;;;27.90;16.38;;;-0.50;99.90;;;;;;4990998;28;20050;-87
2023/01/28 07:56:33;;;;;;;29.88;17.27;;;-0.50;99.90;;;;;;4984886;28;20062;-87
2023/01/28 07:59:21;;;;;;;27.27;16.92;;;-0.50;99.90;;;;;;4979423;28;20047;-87
2023/01/28 08:02:11;;;;;;;28.45;16.45;;;-0.40;99.90;;;;;;5004910;28;20057;-88
2023/01/28 08:05:00;;;;;;;31.50;18.08;;;-0.40;99.90;;;;;;4967593;29;20062;-88
2023/01/28 08:07:48;;;;;;;35.20;18.20;;;-0.40;99.90;;;;;;4983592;28;20047;-87
2023/01/28 08:10:36;;;;;;;30.27;18.20;;;-0.40;99.90;;;;;;4987477;28;20414;-87
2023/01/28 08:13:23;;;;;;;29.25;16.55;;;-0.30;99.90;;;;;;4990551;28;20514;-88
2023/01/28 08:16:12;;;;;;;31.25;17.75;;;-0.30;99.90;;;;;;4980831;28;20061;-88
2023/01/28 08:19:00;;;;;;;30.05;17.42;;;-0.30;99.90;;;;;;4985789;28;20439;-87
2023/01/28 08:22:40;;;;;;;31.38;18.02;;;-0.20;99.90;;;;;;4974282;28;20058;-87
2023/01/28 08:25:31;;;;;;;29.25;17.10;;;-0.20;99.90;;;;;;4883149;29;20117;-87
2023/01/28 08:28:21;;;;;;;26.08;16.63;;;-0.10;99.90;;;;;;4891454;28;20049;-89
2023/01/28 08:31:08;;;;;;;30.63;18.73;;;-0.10;99.90;;;;;;4973970;28;20057;-86
2023/01/28 08:33:59;;;;;;;31.00;17.70;;;0.00;73.80;;;;;;4977561;28;20051;-88
2023/01/28 08:36:48;;;;;;;29.50;17.73;;;0.00;10.40;;;;;;4964574;28;20047;-87
2023/01/28 08:39:35;;;;;;;30.88;19.10;;;0.00;1.00;;;;;;4981647;28;20047;-88
2023/01/28 08:42:23;;;;;;;33.80;19.13;;;0.00;1.00;;;;;;4984226;28;20058;-88
2023/01/28 08:45:14;;;;;;;31.63;18.75;;;0.00;99.90;;;;;;4984792;28;20121;-88
2023/01/28 08:48:04;;;;;;;29.75;18.48;;;0.00;99.90;;;;;;4986909;28;20118;-88
2023/01/28 08:50:51;;;;;;;28.88;17.88;;;0.10;99.90;;;;;;4975394;28;20054;-87
2023/01/28 08:53:53;;;;;;;34.13;17.70;;;0.10;99.90;;;;;;4988199;28;20431;-89
2023/01/28 08:56:44;;;;;;;;;;;0.20;28.10;;;;;;4992813;28;20077;-88
2023/01/28 08:59:31;;;;;;;31.40;17.10;;;0.20;1.00;;;;;;4978021;28;19933;-86
2023/01/28 09:02:20;;;;;;;32.33;19.17;;;0.20;99.90;;;;;;4986217;28;20047;-88
2023/01/28 09:05:19;;;;;;;29.08;17.60;;;0.20;53.20;;;;;;4977615;28;20046;-88
2023/01/28 09:08:09;;;;;;;31.15;18.80;;;0.20;1.00;;;;;;4989383;28;20062;-86
2023/01/28 09:10:57;;;;;;;35.33;18.48;;;0.30;99.90;;;;;;4975808;28;20042;-90
2023/01/28 09:13:45;;;;;;;28.58;17.38;;;0.40;97.70;;;;;;4976847;28;20051;-88
2023/01/28 09:16:35;;;;;;;30.60;18.10;;;0.40;1.00;;;;;;4979296;28;20102;-91
2023/01/28 09:19:24;;;;;;;27.85;18.02;;;0.50;99.90;;;;;;4978941;28;20136;-89
2023/01/28 09:26:20;;;;;;;30.70;17.33;;;0.40;99.90;;;;;;4988082;28;20049;-89
2023/01/28 09:37:23;;;;;;;31.63;16.63;;;0.60;99.90;;;;;;4986773;28;20031;-93
2023/01/28 09:40:29;;;;;;;25.88;15.85;;;0.70;99.90;;;;;;4987179;28;20038;-89
2023/01/28 09:43:39;;;;;;;23.35;15.18;;;0.80;1.00;;;;;;4980481;28;20058;-90
2023/01/28 09:46:36;;;;;;;23.52;14.98;;;0.90;99.90;;;;;;4986397;28;20081;-90
2023/01/28 09:49:58;;;;;;;23.60;14.93;;;0.90;99.90;;;;;;4986174;28;20038;-91
2023/01/28 09:52:45;;;;;;;24.20;14.93;;;0.80;1.00;;;;;;4931048;28;20043;-92
2023/01/28 09:55:45;;;;;;;23.48;15.40;;;0.80;99.90;;;;;;4974711;28;20054;-90
2023/01/28 09:58:33;;;;;;;22.90;14.68;;;0.80;99.90;;;;;;4954607;28;20372;-89
2023/01/28 10:01:39;;;;;;;27.42;15.35;;;0.80;99.90;;;;;;4967299;28;20113;-88
2023/01/28 10:04:31;;;;;;;22.88;14.43;;;0.90;99.90;;;;;;4977980;28;20439;-89
2023/01/28 10:07:32;;;;;;;24.38;15.00;;;1.00;22.10;;;;;;4965632;28;20512;-89
2023/01/28 10:10:27;;;;;;;23.35;13.50;;;1.20;1.00;;;;;;4966681;28;20042;-89
2023/01/28 10:13:50;;;;;;;24.58;14.30;;;1.30;99.90;;;;;;4964653;28;20066;-89
2023/01/28 10:16:49;;;;;;;21.48;14.18;;;1.40;99.90;;;;;;4980982;28;20038;-91
2023/01/28 10:19:45;;;;;;;21.15;13.85;;;1.40;99.90;;;;;;4974808;28;20050;-89
2023/01/28 10:23:14;;;;;;;23.83;13.90;;;1.30;99.90;;;;;;4981160;28;20069;-90
2023/01/28 10:26:11;;;;;;;25.65;14.30;;;1.10;3.10;;;;;;4959704;28;20069;-89
2023/01/28 10:29:04;;;;;;;23.60;14.95;;;1.00;1.00;;;;;;4976662;28;20119;-88
2023/01/28 10:32:00;;;;;;;23.77;14.55;;;0.90;1.00;;;;;;4982888;28;20129;-91
2023/01/28 10:34:50;;;;;;;28.00;15.00;;;0.80;1.00;;;;;;4965688;28;20074;-92
2023/01/28 10:37:39;;;;;;;24.77;15.27;;;0.80;1.00;;;;;;4973098;28;20140;-89
2023/01/28 10:40:35;;;;;;;23.88;15.75;;;0.70;1.00;;;;;;4966625;28;20059;-87
2023/01/28 10:43:24;;;;;;;26.73;15.77;;;0.70;1.00;;;;;;4978919;28;20042;-88
2023/01/28 10:46:16;;;;;;;24.33;15.63;;;0.80;1.00;;;;;;4972838;28;20053;-90
2023/01/28 10:49:12;;;;;;;23.95;14.45;;;0.80;1.00;;;;;;4975760;28;20106;-89
2023/01/28 10:52:10;;;;;;;25.20;14.85;;;0.80;1.00;;;;;;4967622;28;20042;-90
2023/01/28 10:55:03;;;;;;;26.98;14.70;;;0.80;1.00;;;;;;4977308;28;20058;-89
2023/01/28 10:57:54;;;;;;;26.05;15.13;;;0.70;1.00;;;;;;4976759;28;20073;-89
2023/01/28 11:00:42;;;;;;;30.48;17.48;;;0.70;1.00;;;;;;4958556;28;20551;-91
2023/01/28 11:03:33;;;;;;;29.02;17.42;;;0.80;1.00;;;;;;4975423;28;20039;-93
2023/01/28 11:06:31;;;;;;;28.23;17.13;;;0.80;1.00;;;;;;4960955;28;20480;-93
2023/01/28 11:09:27;;;;;;;30.67;17.05;;;0.90;1.00;;;;;;4985926;28;20061;-94
2023/01/28 11:12:58;;;;;;;33.03;16.98;;;1.00;1.00;;;;;;4969420;28;20042;-92
2023/01/28 11:15:50;;;;;;;28.90;17.30;;;1.00;1.00;;;;;;4973914;28;20042;-92
2023/01/28 11:18:45;;;;;;;25.58;15.57;;;1.10;1.00;;;;;;4969429;28;20116;-89
2023/01/28 11:21:34;;;;;;;25.98;16.10;;;1.10;1.00;;;;;;4969476;28;20479;-88
2023/01/28 11:24:28;;;;;;;30.00;15.85;;;1.10;1.00;;;;;;4964934;28;20061;-86
2023/01/28 11:27:17;;;;;;;28.48;16.45;;;1.20;1.00;;;;;;4975657;28;20055;-91
2023/01/28 11:30:45;;;;;;;25.65;14.82;;;1.30;1.00;;;;;;4969954;28;20453;-90
2023/01/28 11:34:14;;;;;;;27.27;15.55;;;1.30;1.00;;;;;;4978359;28;20047;-91
2023/01/28 11:37:47;;;;;;;25.88;15.23;;;1.40;99.90;;;;;;4979849;28;20065;-90
2023/01/28 11:40:37;;;;;;;24.63;15.15;;;1.30;99.90;;;;;;4965126;28;20142;-89
2023/01/28 11:43:30;;;;;;;24.38;14.85;;;1.20;99.90;;;;;;4986443;28;20109;-92
2023/01/28 11:46:18;;;;;;;;;;;1.10;99.90;;;;;;4981184;28;20058;-89
2023/01/28 11:49:34;;;;;;;27.33;15.65;;;0.90;99.90;;;;;;4974027;28;19922;-90
2023/01/28 11:52:31;;;;;;;32.83;18.00;;;0.90;99.90;;;;;;4975862;28;20043;-89
2023/01/28 11:56:00;;;;;;;30.30;17.30;;;0.80;99.90;;;;;;4974946;28;20110;-89
2023/01/28 11:59:16;;;;;;;31.67;18.48;;;0.70;1.00;;;;;;4968096;28;20057;-88
2023/01/28 12:02:33;;;;;;;33.80;19.00;;;0.70;1.00;;;;;;4953582;28;20118;-91
2023/01/28 12:05:29;;;;;;;37.10;20.38;;;0.60;18.20;;;;;;4976461;28;20065;-92
2023/01/28 12:08:25;;;;;;;40.50;20.23;;;0.60;99.90;;;;;;4979330;28;20177;-89
2023/01/28 12:15:01;;;;;;;35.97;20.95;;;0.60;1.00;;;;;;4974337;28;20047;-89
2023/01/28 12:18:17;;;;;;;40.42;22.55;;;0.60;1.00;;;;;;4953306;28;20047;-91
2023/01/28 12:21:09;;;;;;;44.13;23.08;;;0.50;99.90;;;;;;4976626;28;20058;-91
2023/01/28 12:24:09;;;;;;;47.80;23.23;;;0.50;99.90;;;;;;4975083;28;20039;-92
2023/01/28 12:27:15;;;;;;;43.45;23.23;;;0.40;1.00;;;;;;4975378;28;20049;-90
2023/01/28 12:30:28;;;;;;;42.80;22.75;;;0.40;1.00;;;;;;4992049;28;20047;-91
2023/01/28 12:38:21;;;;;;;45.25;22.75;;;0.40;99.90;;;;;;4921676;29;20051;-92
2023/01/28 12:45:33;;;;;;;39.00;21.48;;;0.60;99.90;;;;;;4923113;29;20040;-92
2023/01/28 12:49:26;;;;;;;43.08;20.38;;;0.60;99.90;;;;;;4906509;29;20425;-91
2023/01/28 12:56:39;;;;;;;39.45;20.90;;;0.60;99.90;;;;;;4843967;29;20129;-90
2023/01/28 13:00:18;;;;;;;40.63;21.45;;;0.60;1.00;;;;;;4833647;29;20054;-90
2023/01/28 13:03:27;;;;;;;34.22;19.15;;;0.60;1.00;;;;;;4846262;29;20061;-91
2023/01/28 13:06:46;;;;;;;39.88;20.67;;;0.60;1.00;;;;;;4835082;29;20062;-89
2023/01/28 13:13:42;;;;;;;37.22;19.52;;;0.50;99.90;;;;;;4888198;29;20045;-91
2023/01/28 13:16:34;;;;;;;33.40;17.95;;;0.50;99.90;;;;;;4879687;29;20427;-87
2023/01/28 13:19:36;;;;;;;35.97;20.00;;;0.50;99.90;;;;;;4894371;29;20528;-91
2023/01/28 13:22:35;;;;;;;37.67;20.02;;;0.60;99.90;;;;;;4897732;29;20029;-91
2023/01/28 13:25:24;;;;;;;38.00;20.63;;;0.60;99.90;;;;;;4899848;29;20132;-91
2023/01/28 13:28:31;;;;;;;45.35;22.92;;;0.60;99.90;;;;;;4907951;29;20085;-90
2023/01/28 13:31:23;;;;;;;40.15;21.83;;;0.60;99.90;;;;;;4889203;29;20164;-88
2023/01/28 13:34:32;;;;;;;40.58;21.48;;;0.50;99.90;;;;;;4897060;29;20040;-88
2023/01/28 13:37:43;;;;;;;40.85;21.70;;;0.50;99.90;;;;;;4982876;28;20042;-89
2023/01/28 13:40:30;;;;;;;37.08;19.38;;;0.50;99.90;;;;;;4986703;28;20043;-92
2023/01/28 13:43:40;;;;;;;74.50;24.85;;;0.50;99.90;;;;;;4978231;28;20043;-93
2023/01/28 13:46:30;;;;;;;37.83;19.58;;;0.60;99.90;;;;;;4964303;28;20137;-91
2023/01/28 13:49:36;;;;;;;45.85;20.92;;;0.60;99.90;;;;;;4984867;28;20061;-91
2023/01/28 13:52:41;;;;;;;40.35;21.10;;;0.70;99.90;;;;;;4964439;28;20113;-89
2023/01/28 13:55:43;;;;;;;40.70;19.90;;;0.70;99.90;;;;;;4966312;28;20134;-90
2023/01/28 13:58:50;;;;;;;36.28;19.88;;;0.70;99.90;;;;;;4960858;28;20127;-91
2023/01/28 14:01:58;;;;;;;35.65;18.05;;;0.70;99.90;;;;;;4975923;28;20127;-93
2023/01/28 14:05:04;;;;;;;30.45;16.83;;;0.60;99.90;;;;;;4973070;28;20114;-89
2023/01/28 14:08:28;;;;;;;38.00;18.73;;;0.60;99.90;;;;;;4980585;28;20055;-89
2023/01/28 14:11:54;;;;;;;31.48;17.50;;;0.60;99.90;;;;;;4984192;28;20050;-89
2023/01/28 14:15:03;;;;;;;30.98;15.88;;;0.70;99.90;;;;;;4975976;28;20094;-87
2023/01/28 14:17:53;;;;;;;29.77;15.40;;;0.70;99.90;;;;;;4971312;28;20047;-87
2023/01/28 14:20:44;;;;;;;24.25;13.50;;;0.70;99.90;;;;;;4966234;28;20053;-89
2023/01/28 14:23:34;;;;;;;24.70;13.15;;;0.80;99.90;;;;;;4948153;28;20039;-86
2023/01/28 14:26:46;;;;;;;23.40;11.88;;;0.80;99.90;;;;;;4973171;28;20183;-89
2023/01/28 14:29:55;;;;;;;15.68;9.82;;;0.80;99.90;;;;;;4976490;28;20144;-87
2023/01/28 14:32:49;;;;;;;16.65;9.85;;;0.80;99.90;;;;;;4979690;28;20113;-87
2023/01/28 14:36:09;;;;;;;19.13;10.00;;;0.80;99.90;;;;;;4974680;28;20045;-89
2023/01/28 14:38:57;;;;;;;15.25;10.23;;;0.90;99.90;;;;;;4977120;28;20464;-87
2023/01/28 14:42:46;;;;;;;16.08;9.27;;;1.00;99.90;;;;;;4976892;28;20504;-87
2023/01/28 14:45:47;;;;;;;17.55;9.95;;;1.00;99.90;;;;;;4980415;28;20516;-88
2023/01/28 14:48:37;;;;;;;17.27;10.07;;;1.00;99.90;;;;;;4984835;28;20056;-88
2023/01/28 14:52:20;;;;;;;19.63;10.88;;;0.90;99.90;;;;;;4984998;28;20051;-86
2023/01/28 14:55:35;;;;;;;19.35;11.88;;;0.90;99.90;;;;;;4970131;28;20046;-89
2023/01/28 14:58:32;;;;;;;19.48;11.13;;;0.80;99.90;;;;;;4973946;28;20042;-89
2023/01/28 15:01:25;;;;;;;23.58;13.57;;;0.70;99.90;;;;;;4989092;28;20058;-90
2023/01/28 15:05:23;;;;;;;25.80;12.93;;;0.50;1.00;;;;;;4982600;28;20066;-90
2023/01/28 15:08:36;;;;;;;20.25;11.90;;;0.50;86.60;;;;;;4894791;29;20059;-87
2023/01/28 15:11:44;;;;;;;22.05;12.43;;;0.50;99.90;;;;;;4885152;29;20222;-88
2023/01/28 15:14:58;;;;;;;24.00;12.77;;;0.40;99.90;;;;;;4896898;29;20611;-89
2023/01/28 15:18:15;;;;;;;26.70;14.32;;;0.40;1.00;;;;;;4884313;29;20054;-87
2023/01/28 15:21:05;;;;;;;21.70;13.40;;;0.30;99.90;;;;;;4891194;29;20127;-91
2023/01/28 15:24:17;;;;;;;31.10;15.07;;;0.30;99.90;;;;;;4906600;29;20163;-89
2023/01/28 15:27:47;;;;;;;;;;;;;;;;;;;;;
2023/01/28 15:31:27;;;;;;;29.63;15.68;;;0.30;72.40;;;;;;4975874;28;20049;-91
2023/01/28 15:38:19;;;;;;;26.30;14.68;;;0.30;99.90;;;;;;4979809;28;20054;-91
2023/01/28 15:41:06;;;;;;;28.90;15.70;;;0.30;1.00;;;;;;4989610;28;20074;-91
2023/01/28 15:43:53;;;;;;;28.17;16.42;;;0.20;99.90;;;;;;4979901;28;20440;-90
2023/01/28 15:46:40;;;;;;;34.92;18.45;;;0.20;99.90;;;;;;4960638;28;20039;-91
2023/01/28 15:49:36;;;;;;;32.33;17.88;;;0.20;1.00;;;;;;4967857;28;20150;-92
2023/01/28 15:52:35;;;;;;;34.95;19.38;;;0.20;1.00;;;;;;4977479;28;20411;-88
2023/01/28 16:21:39;;;;;;;24.77;16.00;;;0.10;1.00;;;;;;5347558;23;19922;-87
2023/01/28 16:24:34;;;;;;;23.55;14.65;;;0.00;99.90;;;;;;4995605;28;20130;-88
2023/01/28 16:27:25;;;;;;;22.20;14.02;;;0.00;99.90;;;;;;4981008;28;20043;-88
2023/01/28 16:30:15;;;;;;;21.27;13.35;;;0.00;99.90;;;;;;4978278;28;20066;-92
2023/01/28 16:33:14;;;;;;;24.85;15.32;;;0.00;1.00;;;;;;4968443;28;20112;-89
2023/01/28 16:36:01;;;;;;;26.02;15.30;;;0.00;1.00;;;;;;4981265;28;20118;-90
2023/01/28 16:39:16;;;;;;;;;;;0.00;1.00;;;;;;4964720;28;20472;-88